Latest Weather Observations for Dubbo

IDN60801

Issued at 2:35 pm EDT Sunday 26 October 2014 (issued every 30 minutes, with the page automatically refreshed every 10 minutes)

About weather observations | Map of weather stations | Latest weather observations for NSW | Other Formats
Station Details ID: 065070 Name: DUBBO AIRPORT AWS Lat: -32.22 Lon: 148.58 Height: 284.0 m
Data from the previous 72 hours. | See also: Recent months at Dubbo
Date/Time
EDT
Temp
°C
App
Temp
°C
Dew
Point
Rel
Hum
%
Delta-T
°C
Wind Press
QNH
hPa
Press
MSL
hPa
Rain
since 9 am
mm
Dir
 
Spd
km/h
Gust
km/h
Spd
kts
Gust
kts
26/02:34pm 36.4 29.1 5.6 15 17.0 WSW 33 46 18 25 1010.3 1009.7 0.0
26/02:30pm 35.9 31.4 6.2 16 16.5 WNW 19 28 10 15 1010.3 1009.7 0.0
26/02:04pm 35.9 28.9 6.2 16 16.5 WNW 32 50 17 27 1010.7 1010.1 0.0
26/02:00pm 36.0 28.9 6.2 16 16.5 W 33 50 18 27 1010.6 1010.0 0.0
26/01:40pm 36.0 29.8 6.2 16 16.5 W 28 43 15 23 1010.8 1010.2 0.0
26/01:30pm 35.5 31.1 6.7 17 16.1 WNW 19 24 10 13 1011.1 1010.5 0.0
26/01:00pm 35.8 29.8 7.0 17 16.2 W 28 37 15 20 1011.6 1011.0 0.0
26/12:30pm 34.9 28.9 5.4 16 16.1 SW 26 39 14 21 1012.0 1011.4 0.0
26/12:00pm 34.6 28.6 5.1 16 16.0 W 26 39 14 21 1012.4 1011.7 0.0
26/11:30am 34.4 29.1 5.0 16 15.9 WSW 22 30 12 16 1012.4 1011.7 0.0
26/11:00am 32.0 29.6 7.0 21 13.8 NNW 9 15 5 8 1012.9 1012.3 0.0
26/10:30am 31.7 30.0 7.4 22 13.4 NW 6 11 3 6 1013.0 1012.4 0.0
26/10:00am 30.4 28.5 7.6 24 12.6 NW 7 13 4 7 1013.2 1012.6 0.0
26/09:30am 28.6 27.2 8.8 29 11.0 NNW 6 11 3 6 1013.4 1012.8 0.0
26/09:00am 27.6 25.2 9.9 33 10.0 NNW 13 17 7 9 1013.6 1013.0 0.4
26/08:30am 25.6 24.6 9.0 35 9.1 NW 4 7 2 4 1013.3 1012.7 0.4
26/08:00am 22.6 22.5 9.4 43 7.2 CALM 0 6 0 3 1013.2 1012.6 0.4
26/07:30am 20.3 19.9 9.8 51 5.7 NE 2 6 1 3 1013.2 1012.6 0.4
26/07:00am 16.9 17.0 10.1 64 3.6 CALM 0 0 0 0 1013.0 1012.4 0.4
26/06:30am 15.1 13.6 8.6 65 3.3 WSW 6 9 3 5 1013.0 1012.4 0.4
26/06:00am 15.7 13.6 8.2 61 3.8 E 9 11 5 6 1012.7 1012.1 0.4
26/05:30am 16.1 14.0 8.1 59 4.1 SSW 9 11 5 6 1012.6 1011.9 0.4
26/05:00am 16.3 15.8 7.8 57 4.3 CALM 0 7 0 4 1012.5 1011.8 0.4
26/04:30am 16.9 16.5 8.3 57 4.4 CALM 0 0 0 0 1012.4 1011.7 0.4
26/04:00am 19.4 19.0 8.1 48 5.9 CALM 0 6 0 3 1011.9 1011.3 0.4
26/03:31am 20.1 17.8 7.5 44 6.5 NE 9 9 5 5 1011.9 1011.3 0.4
26/03:30am 20.2 17.9 7.6 44 6.6 NE 9 9 5 5 1011.9 1011.3 0.4
26/03:21am 20.7 18.8 7.7 43 6.8 NE 7 9 4 5 1011.9 1011.3 0.4
26/03:00am 21.6 19.7 7.4 40 7.4 NE 7 9 4 5 1012.1 1011.5 0.4
26/02:30am 21.7 19.6 6.8 38 7.7 NE 7 9 4 5 1012.5 1011.8 0.4
26/02:00am 23.4 20.6 7.1 35 8.6 ENE 11 17 6 9 1013.0 1012.4 0.4
26/01:30am 23.5 20.0 7.2 35 8.6 ENE 15 17 8 9 1013.3 1012.7 0.4
26/01:00am 23.2 19.3 6.9 35 8.5 E 17 19 9 10 1013.7 1013.1 0.4
26/12:30am 23.5 19.9 6.7 34 8.8 E 15 19 8 10 1014.0 1013.4 0.4
26/12:00am 26.0 22.9 7.1 30 10.1 ENE 13 17 7 9 1014.4 1013.8 0.4
 
Date/Time
EDT
Temp
°C
App
Temp
°C
Dew
Point
Rel
Hum
%
Delta-T
°C
Wind Press
QNH
hPa
Press
MSL
hPa
Rain
since 9 am
mm
Dir
 
Spd
km/h
Gust
km/h
Spd
kts
Gust
kts
25/11:30pm 26.7 22.8 7.2 29 10.5 E 17 22 9 12 1014.7 1014.1 0.4
25/11:00pm 26.0 25.2 8.0 32 9.8 W 2 9 1 5 1015.3 1014.7 0.4
25/10:30pm 26.3 24.3 6.9 29 10.3 WNW 7 11 4 6 1015.4 1014.8 0.4
25/10:00pm 27.8 25.4 7.1 27 11.2 N 9 13 5 7 1015.3 1014.7 0.4
25/09:30pm 27.0 26.0 7.5 29 10.5 ESE 2 7 1 4 1014.6 1014.0 0.4
25/09:00pm 25.6 22.9 5.8 28 10.3 E 9 11 5 6 1013.9 1013.3 0.4
25/08:30pm 27.2 24.5 5.5 25 11.3 SE 9 13 5 7 1013.7 1013.1 0.4
25/08:00pm 30.5 28.9 4.3 19 13.7 ESE 2 6 1 3 1013.7 1013.1 0.4
25/07:30pm 31.1 25.4 4.8 19 13.9 SSE 24 41 13 22 1013.2 1012.6 0.4
25/07:25pm 32.8 26.3 4.6 17 15.0 S 28 46 15 25 1013.2 1012.6 0.4
25/07:16pm 31.7 24.9 5.3 19 14.1 S 30 43 16 23 1013.2 1012.6 0.4
25/07:00pm 32.4 23.9 5.0 18 14.6 SW 39 57 21 31 1013.0 1012.4 0.4
25/06:30pm 33.0 29.6 3.9 16 15.3 NW 11 13 6 7 1012.0 1011.4 0.4
25/06:00pm 34.7 29.8 2.3 13 16.8 WNW 17 20 9 11 1011.9 1011.3 0.4
25/05:30pm 36.5 33.6 2.5 12 17.8 WSW 7 20 4 11 1012.0 1011.4 0.4
25/05:00pm 36.7 31.1 1.5 11 18.2 WNW 20 30 11 16 1012.4 1011.7 0.4
25/04:30pm 36.9 32.5 2.8 12 18.0 WNW 15 24 8 13 1012.5 1011.8 0.4
25/04:00pm 37.2 32.1 3.1 12 18.1 WNW 19 24 10 13 1012.8 1012.2 0.4
25/03:30pm 35.3 31.3 2.7 13 17.1 WNW 13 26 7 14 1013.1 1012.5 0.4
25/03:00pm 36.5 30.9 3.7 13 17.5 WNW 22 33 12 18 1013.4 1012.8 0.4
25/02:30pm 36.1 31.8 3.3 13 17.4 SW 15 32 8 17 1014.0 1013.4 0.4
25/02:00pm 36.0 32.1 3.3 13 17.3 NW 13 26 7 14 1014.5 1013.9 0.4
25/01:30pm 36.0 33.4 4.3 14 17.1 NW 7 22 4 12 1015.0 1014.4 0.4
25/01:00pm 35.0 31.1 3.5 14 16.6 NW 13 17 7 9 1015.5 1014.9 0.4
25/12:30pm 34.3 31.8 4.0 15 16.1 W 6 9 3 5 1016.0 1015.4 0.4
25/12:00pm 33.6 30.5 3.4 15 15.8 S 9 17 5 9 1016.6 1016.0 0.4
25/11:30am 32.5 29.0 3.5 16 15.1 SE 11 17 6 9 1017.1 1016.5 0.4
25/11:00am 31.7 28.0 4.5 18 14.3 SE 13 20 7 11 1017.3 1016.7 0.4
25/10:30am 30.9 27.4 7.4 23 12.9 ESE 15 24 8 13 1017.5 1016.9 0.4
25/10:00am 29.0 26.5 8.1 27 11.5 ESE 11 17 6 9 1017.6 1017.0 0.4
25/09:30am 27.5 25.7 9.3 32 10.2 E 9 13 5 7 1017.8 1017.2 0.0
25/09:00am 26.1 23.9 7.7 31 9.9 ESE 9 11 5 6 1017.7 1017.1 0.0
25/08:30am 23.3 21.6 8.2 38 8.1 ESE 7 9 4 5 1017.7 1017.1 0.0
25/08:00am 20.6 18.3 7.6 43 6.8 ESE 9 11 5 6 1017.6 1017.0 0.0
25/07:30am 19.0 17.5 8.4 50 5.6 ESE 6 9 3 5 1017.4 1016.8 0.0
25/07:00am 15.7 13.2 8.4 62 3.7 SSE 11 13 6 7 1017.3 1016.7 0.0
25/06:30am 14.2 12.7 7.0 62 3.6 E 4 6 2 3 1016.9 1016.3 0.0
25/06:00am 13.6 12.6 5.7 59 3.8 CALM 0 0 0 0 1016.6 1016.0 0.0
25/05:30am 15.0 14.0 5.8 54 4.5 CALM 0 0 0 0 1016.1 1015.5 0.0
25/05:00am 14.7 13.7 5.8 55 4.3 CALM 0 0 0 0 1016.0 1015.4 0.0
25/04:30am 15.7 14.8 5.9 52 4.8 CALM 0 0 0 0 1015.6 1015.1 0.0
25/04:00am 16.1 14.4 6.0 51 5.0 NNE 4 7 2 4 1015.5 1014.9 0.0
25/03:30am 17.3 16.3 5.6 46 5.7 CALM 0 0 0 0 1015.3 1014.7 0.0
25/03:00am 18.4 16.2 5.3 42 6.4 E 6 9 3 5 1015.4 1014.8 0.0
25/02:30am 18.3 17.2 5.2 42 6.4 CALM 0 0 0 0 1015.5 1014.9 0.0
25/02:00am 19.4 16.8 4.3 37 7.3 SE 7 9 4 5 1015.5 1014.9 0.0
25/01:30am 20.8 17.1 4.4 34 8.1 SW 13 17 7 9 1015.6 1015.1 0.0
25/01:00am 21.6 17.9 4.2 32 8.6 WSW 13 17 7 9 1015.7 1015.2 0.0
25/12:30am 21.7 18.4 4.3 32 8.6 WSW 11 13 6 7 1015.7 1015.2 0.0
25/12:00am 21.9 18.2 4.5 32 8.6 W 13 17 7 9 1015.5 1014.9 0.0
 
Date/Time
EDT
Temp
°C
App
Temp
°C
Dew
Point
Rel
Hum
%
Delta-T
°C
Wind Press
QNH
hPa
Press
MSL
hPa
Rain
since 9 am
mm
Dir
 
Spd
km/h
Gust
km/h
Spd
kts
Gust
kts
24/11:30pm 23.6 19.9 4.5 29 9.6 WSW 13 13 7 7 1015.4 1014.8 0.0
24/11:00pm 24.7 21.1 5.0 28 10.0 W 13 13 7 7 1015.3 1014.7 0.0
24/10:30pm 25.7 22.1 4.8 26 10.7 W 13 17 7 9 1015.1 1014.5 0.0
24/10:00pm 27.9 23.9 4.9 23 11.9 W 15 20 8 11 1015.0 1014.4 0.0
24/09:30pm 27.5 23.4 4.5 23 11.8 WSW 15 17 8 9 1014.7 1014.1 0.0
24/09:00pm 30.1 25.4 3.2 18 13.8 WSW 17 20 9 11 1014.2 1013.6 0.0
24/08:30pm 31.0 26.1 2.3 16 14.5 W 17 22 9 12 1013.8 1013.2 0.0
24/08:00pm 32.6 25.6 1.7 14 15.7 WNW 28 37 15 20 1013.1 1012.5 0.0
24/07:42pm 32.7 25.1 0.7 13 16.0 WSW 30 48 16 26 1012.8 1012.2 0.0
24/07:30pm 32.1 26.0 0.2 13 15.7 WSW 22 37 12 20 1012.8 1012.2 0.0
24/07:00pm 33.7 28.1 1.5 13 16.4 W 20 46 11 25 1011.9 1011.3 0.0
24/06:51pm 33.9 26.7 0.5 12 16.7 W 28 46 15 25 1012.0 1011.4 0.0
24/06:30pm 32.8 28.9 6.9 20 14.3 NNW 17 20 9 11 1011.5 1010.9 0.0
24/06:00pm 33.6 29.5 6.0 18 15.1 NNW 17 24 9 13 1011.3 1010.7 0.0
24/05:30pm 36.1 30.9 7.2 17 16.3 NW 24 35 13 19 1011.4 1010.8 0.0
24/05:00pm 36.1 30.7 6.3 16 16.6 NNW 24 35 13 19 1011.5 1010.9 0.0
24/04:30pm 35.7 30.8 6.9 17 16.1 NW 22 41 12 22 1012.0 1011.4 0.0
24/04:00pm 35.7 29.7 6.9 17 16.1 NW 28 35 15 19 1012.5 1011.8 0.0
24/03:30pm 36.2 29.5 8.1 18 16.1 NW 33 44 18 24 1012.9 1012.3 0.0
24/03:00pm 35.5 28.5 8.3 19 15.5 NNW 35 54 19 29 1013.6 1013.0 0.0
24/02:30pm 35.1 28.6 8.0 19 15.4 NNW 32 50 17 27 1013.8 1013.2 0.0
24/02:03pm 35.5 28.8 9.8 21 15.0 N 35 56 19 30 1014.2 1013.6 0.0
24/02:00pm 34.7 28.1 8.4 20 15.0 N 33 43 18 23 1014.4 1013.8 0.0
24/01:33pm 34.9 28.1 9.3 21 14.8 NNW 35 54 19 29 1014.9 1014.3 0.0
24/01:30pm 34.6 27.8 9.1 21 14.7 N 35 43 19 23 1015.0 1014.4 0.0
24/01:00pm 34.3 27.9 9.5 22 14.3 N 33 44 18 24 1015.4 1014.8 0.0
24/12:33pm 34.0 27.6 9.3 22 14.2 N 33 54 18 29 1015.8 1015.3 0.0
24/12:30pm 33.8 27.5 9.8 23 13.9 N 33 50 18 27 1016.1 1015.5 0.0
24/12:00pm 32.6 25.7 8.8 23 13.5 NNW 35 54 19 29 1016.7 1016.1 0.0
24/11:58am 32.8 25.9 8.9 23 13.6 NNW 35 54 19 29 1016.7 1016.1 0.0
24/11:48am 32.3 24.7 9.2 24 13.2 NNW 39 50 21 27 1016.9 1016.3 0.0
24/11:30am 32.0 25.5 8.9 24 13.1 N 33 46 18 25 1017.3 1016.7 0.0
24/11:00am 32.1 26.0 9.6 25 12.9 N 32 44 17 24 1017.8 1017.2 0.0
24/10:30am 30.7 24.8 10.6 29 11.6 N 32 43 17 23 1018.3 1017.7 0.0
24/10:00am 28.1 22.9 10.3 33 10.1 N 28 39 15 21 1018.8 1018.3 0.0
24/09:30am 27.7 23.2 11.3 36 9.5 NNE 26 35 14 19 1019.0 1018.5 0.0
24/09:00am 25.7 21.4 10.7 39 8.5 NNE 24 32 13 17 1019.1 1018.6 0.2
24/08:30am 24.2 22.8 12.2 47 6.9 NE 11 17 6 9 1019.2 1018.7 0.2
24/08:00am 20.7 20.0 13.2 62 4.3 NE 9 11 5 6 1019.2 1018.7 0.2
24/07:30am 19.3 18.4 12.6 65 3.8 E 9 11 5 6 1019.5 1019.0 0.2
24/07:00am 19.1 15.7 12.4 65 3.8 NNE 22 32 12 17 1019.1 1018.6 0.2
24/06:30am 19.8 17.2 12.1 61 4.3 E 17 28 9 15 1019.4 1018.9 0.2
24/06:00am 19.5 16.5 11.8 61 4.3 ESE 19 30 10 16 1019.4 1018.9 0.2
24/05:30am 18.5 15.4 11.6 64 3.8 E 19 24 10 13 1019.0 1018.5 0.2
24/05:00am 18.5 15.3 11.8 65 3.7 ENE 20 24 11 13 1018.1 1017.5 0.2
24/04:30am 21.0 17.9 10.2 50 5.9 S 17 20 9 11 1018.4 1017.8 0.0
24/04:00am 19.9 16.8 10.3 54 5.2 E 17 20 9 11 1016.8 1016.2 0.0
24/03:30am 19.6 16.0 10.0 54 5.2 ESE 19 20 10 11 1017.2 1016.6 0.0
24/03:00am 21.9 19.2 10.4 48 6.4 ENE 15 20 8 11 1017.2 1016.6 0.0
24/02:30am 22.8 19.9 10.9 47 6.7 NE 17 22 9 12 1017.5 1016.9 0.0
24/02:00am 21.9 17.5 10.4 48 6.4 NE 24 32 13 17 1017.8 1017.2 0.0
24/01:30am 23.1 18.5 9.8 43 7.3 E 24 33 13 18 1018.7 1018.2 0.0
24/01:00am 22.8 18.5 9.2 42 7.4 E 22 32 12 17 1018.7 1018.2 0.0
24/12:30am 22.4 17.6 8.9 42 7.3 ENE 24 33 13 18 1018.1 1017.5 0.0
24/12:00am 22.9 18.1 9.0 41 7.5 E 24 37 13 20 1018.1 1017.5 0.0
 
Date/Time
EDT
Temp
°C
App
Temp
°C
Dew
Point
Rel
Hum
%
Delta-T
°C
Wind Press
QNH
hPa
Press
MSL
hPa
Rain
since 9 am
mm
Dir
 
Spd
km/h
Gust
km/h
Spd
kts
Gust
kts
23/11:30pm 22.9 18.5 9.0 41 7.5 E 22 28 12 15 1018.1 1017.5 0.0
23/11:00pm 23.3 18.4 8.6 39 7.9 ENE 24 33 13 18 1018.1 1017.5 0.0
23/10:30pm 23.0 18.6 9.0 41 7.6 E 22 37 12 20 1018.1 1017.5 0.0
23/10:00pm 20.9 18.3 7.9 43 6.8 E 11 13 6 7 1017.8 1017.2 0.0
23/09:30pm 21.0 18.7 7.3 41 7.1 E 9 13 5 7 1017.6 1017.0 0.0
23/09:00pm 23.7 20.2 7.3 35 8.7 SSE 15 17 8 9 1017.3 1016.7 0.0
23/08:30pm 25.7 23.5 7.8 32 9.7 S 9 13 5 7 1016.9 1016.3 0.0
23/08:00pm 22.7 21.5 6.5 35 8.4 NW 2 9 1 5 1016.5 1015.9 0.0
23/07:30pm 27.8 25.4 7.1 27 11.2 NW 9 11 5 6 1016.0 1015.4 0.0
23/07:00pm 29.7 26.5 7.0 24 12.3 NW 13 15 7 8 1015.7 1015.2 0.0
23/06:30pm 31.7 29.2 6.7 21 13.7 WSW 9 15 5 8 1015.5 1014.9 0.0
23/06:00pm 32.2 28.9 6.4 20 14.1 W 13 19 7 10 1015.4 1014.8 0.0
23/05:30pm 31.9 29.7 6.2 20 14.0 NW 7 11 4 6 1015.4 1014.8 0.0
23/05:00pm 32.1 28.0 7.7 22 13.6 W 19 24 10 13 1015.6 1015.1 0.0
23/04:30pm 32.7 29.8 8.2 22 13.8 W 13 20 7 11 1015.5 1014.9 0.0
23/04:00pm 32.3 30.5 7.9 22 13.6 WNW 7 13 4 7 1015.6 1015.1 0.0
23/03:30pm 31.5 28.5 7.9 23 13.1 SW 13 17 7 9 1016.2 1015.6 0.0
23/03:00pm 31.1 28.8 7.5 23 13.0 NE 9 13 5 7 1016.7 1016.1 0.0

Other Formats:

Comma delimited format used in spreadsheet applications
http://www.bom.gov.au/fwo/IDN60801/IDN60801.95719.axf

JavaScript Object Notation format (JSON) in row-major order
http://www.bom.gov.au/fwo/IDN60801/IDN60801.95719.json